Time;durP1;ratioP1;P1;durP2;ratioP2;P2;SDS_P1;SDS_P2;PMS_P1;PMS_P2;Temp;Humidity;BMP_temperature;BMP_pressure;BME280_temperature;BME280_humidity;BME280_pressure;Samples;Min_cycle;Max_cycle;Signal;HPM_P1;HPM_P2
2022/08/22 00:02:35;;;;;;;2.10;2.00;;;20.40;61.90;;;;;;5073228;28;20188;-57
2022/08/22 00:05:10;;;;;;;2.33;1.90;;;20.40;62.10;;;;;;5074669;28;20200;-57
2022/08/22 00:08:06;;;;;;;1.90;1.80;;;20.40;62.30;;;;;;5085688;28;20184;-57
2022/08/22 00:11:02;;;;;;;1.87;1.77;;;20.40;62.00;;;;;;5092686;28;20205;-57
2022/08/22 00:13:50;;;;;;;1.90;1.80;;;20.40;62.20;;;;;;5043371;28;20291;-57
2022/08/22 00:16:28;;;;;;;2.17;1.97;;;20.30;62.30;;;;;;5079034;28;20200;-57
2022/08/22 00:19:24;;;;;;;2.00;1.90;;;20.40;62.40;;;;;;5078889;28;20649;-57
2022/08/22 00:21:57;;;;;;;3.03;2.10;;;20.30;62.50;;;;;;5093844;28;20189;-57
2022/08/22 00:24:37;;;;;;;2.87;2.20;;;20.30;62.60;;;;;;5085204;28;20280;-58
2022/08/22 00:27:11;;;;;;;2.33;2.13;;;20.30;62.90;;;;;;5075954;28;20189;-57
2022/08/22 00:29:51;;;;;;;2.60;2.40;;;20.30;63.20;;;;;;5075582;28;20186;-57
2022/08/22 00:32:39;;;;;;;1.90;1.80;;;20.30;63.40;;;;;;5074669;28;20189;-57
2022/08/22 00:35:12;;;;;;;1.93;1.70;;;20.20;63.50;;;;;;5064427;28;20216;-57
2022/08/22 00:37:59;;;;;;;2.03;1.93;;;20.20;63.40;;;;;;5077191;28;20203;-57
2022/08/22 00:40:27;;;;;;;2.67;2.47;;;20.20;62.80;;;;;;5073340;28;20235;-57
2022/08/22 00:42:56;;;;;;;2.47;2.27;;;20.20;63.00;;;;;;5070783;28;20208;-57
2022/08/22 00:45:30;;;;;;;3.17;2.50;;;20.10;63.10;;;;;;5084144;28;20182;-57
2022/08/22 00:48:26;;;;;;;3.87;2.37;;;20.10;63.50;;;;;;5091063;28;20181;-57
2022/08/22 00:51:07;;;;;;;1.97;1.83;;;20.10;63.80;;;;;;5083845;28;20228;-57
2022/08/22 00:53:51;;;;;;;2.67;2.43;;;20.10;64.10;;;;;;5078333;28;20272;-57
2022/08/22 00:56:23;;;;;;;3.33;2.33;;;20.10;63.70;;;;;;5075694;28;20185;-57
2022/08/22 00:59:19;;;;;;;3.00;2.37;;;20.00;64.00;;;;;;5095163;28;20185;-57
2022/08/22 01:01:56;;;;;;;2.40;2.20;;;20.00;63.90;;;;;;5079060;28;20211;-57
2022/08/22 01:04:39;;;;;;;2.60;2.40;;;20.00;63.80;;;;;;5078152;28;20200;-57
2022/08/22 01:07:34;;;;;;;2.20;2.00;;;20.00;63.60;;;;;;5094874;28;20184;-57
2022/08/22 01:10:16;;;;;;;2.50;2.30;;;20.00;63.90;;;;;;5083404;28;20184;-57
2022/08/22 01:13:03;;;;;;;2.97;2.70;;;19.90;64.30;;;;;;5075441;28;20185;-57
2022/08/22 01:15:34;;;;;;;2.47;2.03;;;19.90;64.70;;;;;;5062229;28;20177;-57
2022/08/22 01:18:18;;;;;;;3.53;2.73;;;19.90;64.50;;;;;;5092999;28;20263;-57
2022/08/22 01:21:02;;;;;;;2.93;2.43;;;19.90;64.30;;;;;;5095925;28;20180;-57
2022/08/22 01:23:53;;;;;;;2.77;2.30;;;19.90;64.70;;;;;;5091563;28;20204;-57
2022/08/22 01:26:46;;;;;;;2.50;2.30;;;19.90;64.40;;;;;;5094258;28;20308;-57
2022/08/22 01:29:27;;;;;;;2.10;2.00;;;19.90;64.40;;;;;;5094791;28;20185;-57
2022/08/22 01:32:14;;;;;;;2.10;2.00;;;19.80;64.80;;;;;;5084680;28;20181;-57
2022/08/22 01:35:13;;;;;;;2.47;2.27;;;19.80;65.20;;;;;;5068220;28;20187;-57
2022/08/22 01:37:57;;;;;;;3.07;2.53;;;19.80;65.20;;;;;;5077574;28;20192;-57
2022/08/22 01:40:29;;;;;;;2.93;2.40;;;19.70;65.30;;;;;;5077656;28;20185;-57
2022/08/22 01:43:15;;;;;;;2.40;2.20;;;19.80;65.60;;;;;;5077960;28;20212;-57
2022/08/22 01:45:56;;;;;;;2.47;2.27;;;19.80;65.10;;;;;;5077404;28;20209;-57
2022/08/22 01:48:41;;;;;;;2.43;2.23;;;19.70;65.10;;;;;;5065920;28;20182;-57
2022/08/22 01:51:25;;;;;;;2.40;2.27;;;19.70;65.00;;;;;;5073166;28;20188;-57
2022/08/22 01:54:26;;;;;;;2.70;2.30;;;19.80;65.00;;;;;;5082549;28;20197;-57
2022/08/22 01:57:00;;;;;;;2.60;2.40;;;19.70;65.20;;;;;;5039832;28;20234;-57
2022/08/22 01:59:46;;;;;;;3.27;2.40;;;19.70;64.90;;;;;;5092205;28;20181;-57
2022/08/22 02:02:30;;;;;;;2.53;2.33;;;19.70;64.80;;;;;;5082026;28;20177;-57
2022/08/22 02:05:08;;;;;;;3.13;2.83;;;19.70;64.60;;;;;;5083345;28;20208;-57
2022/08/22 02:07:50;;;;;;;2.97;2.73;;;19.70;64.70;;;;;;5088167;28;20242;-57
2022/08/22 02:10:52;;;;;;;2.30;2.10;;;19.60;64.50;;;;;;5078486;28;20185;-57
2022/08/22 02:13:24;;;;;;;3.20;2.90;;;19.60;64.80;;;;;;5073054;28;20219;-57
2022/08/22 02:16:05;;;;;;;3.23;2.30;;;19.60;65.20;;;;;;5079472;28;20181;-57
2022/08/22 02:18:46;;;;;;;2.53;2.33;;;19.70;65.10;;;;;;5086692;28;20191;-57
2022/08/22 02:21:21;;;;;;;2.97;2.37;;;19.60;65.00;;;;;;5072716;28;20180;-57
2022/08/22 02:24:03;;;;;;;2.90;2.70;;;19.60;65.30;;;;;;5063321;28;20295;-57
2022/08/22 02:26:46;;;;;;;2.67;2.47;;;19.70;65.10;;;;;;5076385;28;20235;-57
2022/08/22 02:29:46;;;;;;;2.70;2.50;;;19.70;64.50;;;;;;5075688;28;20196;-57
2022/08/22 02:32:35;;;;;;;2.83;2.63;;;19.70;64.50;;;;;;5089498;28;20177;-57
2022/08/22 02:35:29;;;;;;;2.50;2.30;;;19.70;64.50;;;;;;5085010;28;20185;-57
2022/08/22 02:37:58;;;;;;;2.73;2.40;;;19.70;64.50;;;;;;5093497;28;20184;-57
2022/08/22 02:40:50;;;;;;;3.33;2.80;;;19.70;65.00;;;;;;5076558;28;20245;-57
2022/08/22 02:43:46;;;;;;;3.37;2.70;;;19.70;65.30;;;;;;5065558;28;20224;-57
2022/08/22 02:46:31;;;;;;;3.80;2.80;;;19.70;65.40;;;;;;5057492;28;20193;-57
2022/08/22 02:49:11;;;;;;;2.93;2.73;;;19.60;65.50;;;;;;5066262;28;20196;-57
2022/08/22 02:51:46;;;;;;;3.03;2.77;;;19.60;66.70;;;;;;5091207;28;20199;-57
2022/08/22 02:54:21;;;;;;;3.47;2.90;;;19.60;67.40;;;;;;5093452;28;20240;-57
2022/08/22 02:56:57;;;;;;;3.73;2.57;;;19.60;67.50;;;;;;5089062;28;20228;-57
2022/08/22 02:59:57;;;;;;;3.23;3.00;;;19.60;67.50;;;;;;5093706;28;20189;-57
2022/08/22 03:02:26;;;;;;;3.03;2.50;;;19.60;66.90;;;;;;5075136;28;20208;-57
2022/08/22 03:04:56;;;;;;;3.07;2.83;;;19.50;67.10;;;;;;5066373;28;20277;-57
2022/08/22 03:07:33;;;;;;;2.70;2.50;;;19.50;66.50;;;;;;5073563;28;20184;-57
2022/08/22 03:10:21;;;;;;;2.93;2.63;;;19.50;66.90;;;;;;5093900;28;20259;-57
2022/08/22 03:13:10;;;;;;;2.80;2.60;;;19.50;67.30;;;;;;5070601;28;20252;-57
2022/08/22 03:15:48;;;;;;;2.90;2.60;;;19.50;67.60;;;;;;5074082;28;20272;-57
2022/08/22 03:18:41;;;;;;;2.80;2.60;;;19.50;68.00;;;;;;5075719;28;20215;-57
2022/08/22 03:21:08;;;;;;;3.30;2.57;;;19.50;67.30;;;;;;5080401;28;20195;-57
2022/08/22 03:23:55;;;;;;;3.73;3.43;;;19.50;67.00;;;;;;5080005;28;20721;-57
2022/08/22 03:26:58;;;;;;;5.67;2.87;;;19.40;66.40;;;;;;5063431;28;20236;-57
2022/08/22 03:29:26;;;;;;;3.57;2.83;;;19.30;66.50;;;;;;5041859;28;20205;-57
2022/08/22 03:32:20;;;;;;;3.23;2.80;;;19.40;66.90;;;;;;5053530;28;20190;-57
2022/08/22 03:35:02;;;;;;;3.50;2.73;;;19.40;66.60;;;;;;5041488;28;20197;-57
2022/08/22 03:37:40;;;;;;;2.60;2.40;;;19.40;67.00;;;;;;5059903;28;20186;-57
2022/08/22 03:40:18;;;;;;;3.20;2.77;;;19.40;67.90;;;;;;5068792;28;20186;-57
2022/08/22 03:43:12;;;;;;;3.20;3.00;;;19.40;69.20;;;;;;5054623;28;20231;-57
2022/08/22 03:45:58;;;;;;;4.17;3.23;;;19.50;70.50;;;;;;5068070;28;20178;-57
2022/08/22 03:49:04;;;;;;;5.07;3.60;;;19.50;72.30;;;;;;5069006;28;20185;-57
2022/08/22 03:51:53;;;;;;;3.30;3.00;;;19.50;72.40;;;;;;5075401;28;20280;-57
2022/08/22 03:54:40;;;;;;;3.33;2.80;;;19.40;72.70;;;;;;5058585;28;20280;-57
2022/08/22 03:57:56;;;;;;;3.23;2.93;;;19.40;73.20;;;;;;5072033;28;20250;-57
2022/08/22 04:00:59;;;;;;;3.10;2.80;;;19.30;73.30;;;;;;5018541;28;20217;-57
2022/08/22 04:03:58;;;;;;;3.73;2.90;;;19.30;72.70;;;;;;5058348;28;20292;-57
2022/08/22 04:06:51;;;;;;;3.93;3.47;;;19.30;72.70;;;;;;5045352;28;20181;-57
2022/08/22 04:09:38;;;;;;;3.80;3.43;;;19.30;73.20;;;;;;5076986;28;20188;-57
2022/08/22 04:12:48;;;;;;;4.00;2.90;;;19.30;73.20;;;;;;5066762;28;20277;-57
2022/08/22 04:15:25;;;;;;;5.03;3.03;;;19.30;73.10;;;;;;5073866;28;20190;-57
2022/08/22 04:18:25;;;;;;;6.00;2.90;;;19.30;73.30;;;;;;5070740;28;20173;-57
2022/08/22 04:20:56;;;;;;;3.27;2.97;;;19.30;73.20;;;;;;5074435;28;20186;-57
2022/08/22 04:23:33;;;;;;;2.80;2.60;;;19.20;73.90;;;;;;5058644;28;20253;-57
2022/08/22 04:26:08;;;;;;;4.53;3.20;;;19.20;74.00;;;;;;5049728;28;20230;-58
2022/08/22 04:28:51;;;;;;;6.07;3.57;;;19.20;73.80;;;;;;5049041;28;20181;-57
2022/08/22 04:31:28;;;;;;;3.53;2.70;;;19.20;73.30;;;;;;5046466;28;20174;-57
2022/08/22 04:34:06;;;;;;;3.23;2.87;;;19.00;67.70;;;;;;5058589;28;20194;-57
2022/08/22 04:36:44;;;;;;;2.83;2.63;;;19.00;68.90;;;;;;5051496;28;20217;-57
2022/08/22 04:39:33;;;;;;;3.57;2.80;;;18.90;67.00;;;;;;5053760;28;20189;-57
2022/08/22 04:42:04;;;;;;;4.17;2.53;;;18.90;70.30;;;;;;5063092;28;20189;-57
2022/08/22 04:44:57;;;;;;;3.60;2.80;;;18.90;70.30;;;;;;5053149;28;20275;-57
2022/08/22 04:47:37;;;;;;;3.00;2.70;;;18.90;72.30;;;;;;5058093;28;20178;-57
2022/08/22 04:50:44;;;;;;;4.03;3.20;;;19.00;72.70;;;;;;5059499;28;20273;-57
2022/08/22 04:53:46;;;;;;;3.77;2.83;;;19.00;73.60;;;;;;4996479;28;20188;-57
2022/08/22 04:56:27;;;;;;;3.13;2.60;;;19.00;72.80;;;;;;5011384;28;20222;-57
2022/08/22 04:59:16;;;;;;;3.23;2.93;;;18.90;73.00;;;;;;5056150;28;20197;-57
2022/08/22 05:01:56;;;;;;;2.87;2.67;;;19.00;73.50;;;;;;5054129;28;20185;-57
2022/08/22 05:04:38;;;;;;;2.47;2.27;;;19.00;74.00;;;;;;5058657;28;20200;-57
2022/08/22 05:07:13;;;;;;;2.80;2.60;;;19.00;73.10;;;;;;5068291;28;20190;-57
2022/08/22 05:09:45;;;;;;;3.50;3.20;;;19.00;73.80;;;;;;5068682;28;20170;-57
2022/08/22 05:12:17;;;;;;;3.40;2.47;;;19.00;74.50;;;;;;5055462;28;20190;-58
2022/08/22 05:14:51;;;;;;;5.00;2.90;;;19.00;73.80;;;;;;5054632;28;20182;-57
2022/08/22 05:17:22;;;;;;;2.80;2.50;;;19.00;74.10;;;;;;5055947;28;20357;-57
2022/08/22 05:19:52;;;;;;;3.33;3.03;;;19.00;72.60;;;;;;5054145;28;20190;-57
2022/08/22 05:22:25;;;;;;;2.40;2.20;;;18.90;66.80;;;;;;5041137;28;20182;-57
2022/08/22 05:24:56;;;;;;;2.50;2.30;;;18.90;66.70;;;;;;5049890;28;20234;-57
2022/08/22 05:27:34;;;;;;;2.80;2.47;;;18.80;66.30;;;;;;5054564;28;20189;-57
2022/08/22 05:30:10;;;;;;;4.03;2.20;;;18.80;64.90;;;;;;5053308;28;20225;-57
2022/08/22 05:32:49;;;;;;;2.70;2.00;;;18.80;63.00;;;;;;5052716;28;20185;-57
2022/08/22 05:35:18;;;;;;;2.60;2.30;;;18.80;65.70;;;;;;5057225;28;20188;-57
2022/08/22 05:37:47;;;;;;;3.73;2.63;;;18.80;66.90;;;;;;5075167;28;20178;-57
2022/08/22 05:40:26;;;;;;;4.33;2.10;;;18.80;70.20;;;;;;5075237;28;20194;-57
2022/08/22 05:42:55;;;;;;;6.37;3.10;;;18.90;65.30;;;;;;5055707;28;20192;-57
2022/08/22 05:45:23;;;;;;;4.63;2.50;;;18.90;66.20;;;;;;5053052;28;20190;-57
2022/08/22 05:48:03;;;;;;;2.30;2.10;;;18.80;63.40;;;;;;5052118;28;20278;-57
2022/08/22 05:50:32;;;;;;;3.47;2.17;;;18.70;63.30;;;;;;5055390;28;20182;-58
2022/08/22 05:52:58;;;;;;;3.47;2.30;;;18.70;62.70;;;;;;5074981;28;20288;-57
2022/08/22 05:55:47;;;;;;;4.60;2.20;;;18.70;62.30;;;;;;5056500;28;20284;-57
2022/08/22 05:58:25;;;;;;;3.33;2.03;;;18.70;63.20;;;;;;5054998;28;20197;-58
2022/08/22 06:01:20;;;;;;;2.20;2.00;;;18.70;61.60;;;;;;5052273;28;20174;-57
2022/08/22 06:04:25;;;;;;;2.23;2.00;;;18.80;63.10;;;;;;5074602;28;20205;-57
2022/08/22 06:06:55;;;;;;;2.07;1.97;;;18.80;62.80;;;;;;5028985;28;20209;-57
2022/08/22 06:09:29;;;;;;;3.20;2.53;;;18.90;62.90;;;;;;5052744;28;20200;-57
2022/08/22 06:12:10;;;;;;;3.17;2.00;;;18.90;62.80;;;;;;5045556;28;20264;-57
2022/08/22 06:15:06;;;;;;;3.90;2.30;;;18.90;61.10;;;;;;5043854;28;20202;-57
2022/08/22 06:17:56;;;;;;;5.73;2.40;;;19.00;62.30;;;;;;5051806;28;20194;-58
2022/08/22 06:20:42;;;;;;;2.77;2.37;;;19.00;60.30;;;;;;5048075;28;20213;-57
2022/08/22 06:23:14;;;;;;;2.70;2.20;;;19.10;61.10;;;;;;5061146;28;20189;-57
2022/08/22 06:25:45;;;;;;;2.80;2.13;;;19.10;61.50;;;;;;5054362;28;20297;-57
2022/08/22 06:28:20;;;;;;;2.27;2.07;;;19.20;62.50;;;;;;5074293;28;20189;-58
2022/08/22 06:30:49;;;;;;;4.93;2.30;;;19.10;62.30;;;;;;5072322;28;20205;-57
2022/08/22 06:33:23;;;;;;;2.63;2.30;;;19.20;61.50;;;;;;5056463;28;20193;-58
2022/08/22 06:39:02;;;;;;;2.70;2.43;;;19.20;61.70;;;;;;5074020;28;20280;-57
2022/08/22 06:41:32;;;;;;;2.33;2.10;;;19.20;61.00;;;;;;5053755;28;20178;-57
2022/08/22 06:44:00;;;;;;;3.13;2.70;;;19.20;61.20;;;;;;5055964;28;20210;-57
2022/08/22 06:46:28;;;;;;;3.33;2.23;;;19.30;60.10;;;;;;5050487;28;20239;-57
2022/08/22 06:48:55;;;;;;;5.53;2.17;;;19.20;59.20;;;;;;5051593;28;20270;-57
2022/08/22 06:51:25;;;;;;;4.03;2.20;;;19.20;59.20;;;;;;5055786;28;20200;-58
2022/08/22 06:53:55;;;;;;;2.03;1.87;;;19.30;59.40;;;;;;5055347;28;20181;-58
2022/08/22 06:56:24;;;;;;;3.63;2.23;;;19.30;58.60;;;;;;5055343;28;20217;-58
2022/08/22 06:58:54;;;;;;;2.83;2.13;;;19.30;59.40;;;;;;5041044;28;20213;-57
2022/08/22 07:01:37;;;;;;;3.73;2.10;;;19.30;59.70;;;;;;5044371;28;20190;-58
2022/08/22 07:04:09;;;;;;;3.03;2.17;;;19.30;60.40;;;;;;5050752;28;20193;-56
2022/08/22 07:06:45;;;;;;;4.73;1.97;;;19.30;60.30;;;;;;5067299;28;20177;-55
2022/08/22 07:09:26;;;;;;;2.97;2.00;;;19.40;61.60;;;;;;5055447;28;20224;-56
2022/08/22 07:11:55;;;;;;;3.27;2.00;;;19.30;61.10;;;;;;5056122;28;20182;-57
2022/08/22 07:14:38;;;;;;;2.37;2.00;;;19.30;61.20;;;;;;5056436;28;20216;-58
2022/08/22 07:17:07;;;;;;;3.30;2.50;;;19.30;62.30;;;;;;5053853;28;20710;-57
2022/08/22 07:19:47;;;;;;;4.37;2.70;;;19.30;63.30;;;;;;5039589;28;20280;-56
2022/08/22 07:22:20;;;;;;;5.03;2.80;;;19.30;63.80;;;;;;5050939;28;20268;-57
2022/08/22 07:24:55;;;;;;;4.23;2.30;;;19.30;67.60;;;;;;5051476;28;20232;-57
2022/08/22 07:27:24;;;;;;;4.57;3.23;;;19.20;70.80;;;;;;5092866;28;20260;-57
2022/08/22 07:30:03;;;;;;;3.67;2.30;;;19.30;73.70;;;;;;5075979;28;20185;-57
2022/08/22 07:32:50;;;;;;;4.43;2.40;;;19.00;68.20;;;;;;5075355;28;20173;-55
2022/08/22 07:35:25;;;;;;;3.87;2.57;;;18.80;67.30;;;;;;5082204;28;20193;-57
2022/08/22 07:37:54;;;;;;;3.13;2.80;;;18.80;70.70;;;;;;5071608;28;20180;-57
2022/08/22 07:40:49;;;;;;;3.40;2.23;;;18.80;74.90;;;;;;5068365;28;20189;-57
2022/08/22 07:43:36;;;;;;;4.10;2.40;;;18.70;71.00;;;;;;5072780;28;20192;-57
2022/08/22 07:46:29;;;;;;;5.73;2.70;;;18.60;70.10;;;;;;5084220;28;20173;-57
2022/08/22 07:49:13;;;;;;;4.57;2.70;;;18.50;69.10;;;;;;5086360;28;20242;-57
2022/08/22 07:51:56;;;;;;;4.10;2.97;;;18.40;72.90;;;;;;5075789;28;20213;-57
2022/08/22 07:54:56;;;;;;;4.30;2.80;;;18.30;74.50;;;;;;5086744;28;20188;-57
2022/08/22 07:57:39;;;;;;;3.70;3.03;;;18.20;72.00;;;;;;5059195;28;20194;-57
2022/08/22 08:00:12;;;;;;;2.90;2.60;;;18.20;73.60;;;;;;5084546;28;20215;-55
2022/08/22 08:02:52;;;;;;;3.60;3.10;;;18.20;76.00;;;;;;5087868;28;20192;-57
2022/08/22 08:05:21;;;;;;;2.90;2.40;;;18.20;77.40;;;;;;5093009;28;20336;-57
2022/08/22 08:07:47;;;;;;;3.33;3.03;;;18.30;73.10;;;;;;5079342;28;20184;-56
2022/08/22 08:10:18;;;;;;;3.10;2.80;;;18.30;75.20;;;;;;5062945;28;20185;-57
2022/08/22 08:12:50;;;;;;;4.33;2.80;;;18.30;77.00;;;;;;5065552;28;20191;-56
2022/08/22 08:15:20;;;;;;;3.93;2.83;;;18.40;72.70;;;;;;5078702;28;20192;-56
2022/08/22 08:17:50;;;;;;;2.57;2.33;;;18.40;71.90;;;;;;5096001;28;20182;-57
2022/08/22 08:20:19;;;;;;;3.30;2.27;;;18.40;69.20;;;;;;5078096;28;20196;-57
2022/08/22 08:22:47;;;;;;;3.73;2.70;;;18.40;70.60;;;;;;5077429;28;20192;-56
2022/08/22 08:25:18;;;;;;;3.60;3.30;;;18.50;73.20;;;;;;5077969;28;20233;-56
2022/08/22 08:30:28;;;;;;;2.80;2.50;;;18.50;68.60;;;;;;5075165;28;20348;-58
2022/08/22 08:32:56;;;;;;;2.53;2.33;;;18.60;71.50;;;;;;5074743;28;20269;-58
2022/08/22 08:35:26;;;;;;;3.17;2.50;;;18.50;71.30;;;;;;5061976;28;20272;-58
2022/08/22 08:38:14;;;;;;;2.40;2.20;;;18.60;69.60;;;;;;5056770;28;20235;-58
2022/08/22 08:40:52;;;;;;;2.67;2.47;;;18.60;70.00;;;;;;5058809;28;20257;-58
2022/08/22 08:43:42;;;;;;;2.50;2.30;;;18.60;69.20;;;;;;5086291;28;20197;-58
2022/08/22 08:46:13;;;;;;;2.50;2.30;;;18.70;69.50;;;;;;5055679;28;20192;-58
2022/08/22 08:49:03;;;;;;;5.27;2.57;;;18.70;71.10;;;;;;5061373;28;20183;-58
2022/08/22 08:51:57;;;;;;;4.00;2.30;;;18.70;69.10;;;;;;5055503;28;20178;-58
2022/08/22 08:54:54;;;;;;;2.30;2.10;;;18.70;68.80;;;;;;5051428;28;20186;-58
2022/08/22 08:57:38;;;;;;;3.13;2.30;;;18.80;65.50;;;;;;5055380;28;20307;-58
2022/08/22 09:00:42;;;;;;;2.67;2.47;;;18.80;67.70;;;;;;5064452;28;20189;-58
2022/08/22 09:03:11;;;;;;;3.03;2.50;;;18.90;69.70;;;;;;5054130;28;20193;-58
2022/08/22 09:06:16;;;;;;;3.10;2.10;;;18.90;67.30;;;;;;5054644;28;20268;-59
2022/08/22 09:08:56;;;;;;;3.23;2.63;;;18.90;66.80;;;;;;5048634;28;20199;-59
2022/08/22 09:12:00;;;;;;;2.63;2.33;;;19.00;65.20;;;;;;5073147;28;20234;-58
2022/08/22 09:15:21;;;;;;;3.37;2.47;;;19.00;65.60;;;;;;5055418;28;20212;-59
2022/08/22 09:17:53;;;;;;;2.60;2.40;;;19.10;64.90;;;;;;5012570;28;20260;-59
2022/08/22 09:20:45;;;;;;;2.33;2.10;;;19.20;66.30;;;;;;5074481;28;20320;-58
2022/08/22 09:23:48;;;;;;;3.10;2.20;;;19.30;64.10;;;;;;5055416;28;20189;-58
2022/08/22 09:26:24;;;;;;;5.17;2.80;;;19.30;64.60;;;;;;5076273;28;20305;-58
2022/08/22 09:28:56;;;;;;;2.20;2.00;;;19.50;63.70;;;;;;5083962;28;20262;-58
2022/08/22 09:31:28;;;;;;;2.83;2.33;;;19.50;63.00;;;;;;5083191;28;20178;-58
2022/08/22 09:34:25;;;;;;;3.23;1.70;;;19.60;62.10;;;;;;5066309;28;20227;-58
2022/08/22 09:37:09;;;;;;;2.23;2.00;;;19.70;62.90;;;;;;5088548;28;20268;-58
2022/08/22 09:39:52;;;;;;;2.20;1.90;;;19.70;61.60;;;;;;5062382;28;20181;-58
2022/08/22 09:42:21;;;;;;;2.03;1.90;;;19.80;62.10;;;;;;5103051;28;20215;-58
2022/08/22 09:44:56;;;;;;;6.87;1.90;;;19.90;62.30;;;;;;5064877;28;20196;-58
2022/08/22 09:47:40;;;;;;;3.23;2.43;;;19.90;60.80;;;;;;5065382;28;20178;-56
2022/08/22 09:50:19;;;;;;;2.70;2.00;;;20.00;61.20;;;;;;5078778;28;20223;-57
2022/08/22 09:52:57;;;;;;;3.23;2.13;;;20.00;60.60;;;;;;5075920;28;20185;-58
2022/08/22 09:55:50;;;;;;;2.10;2.00;;;20.20;59.50;;;;;;5074435;28;20184;-58
2022/08/22 09:58:56;;;;;;;2.50;2.00;;;20.30;58.80;;;;;;5075565;28;20254;-57
2022/08/22 10:01:53;;;;;;;1.83;1.70;;;20.30;59.20;;;;;;5102908;28;20183;-55
2022/08/22 10:04:24;;;;;;;3.70;1.87;;;20.50;58.70;;;;;;5073968;28;20216;-56
2022/08/22 10:07:12;;;;;;;2.10;1.90;;;20.50;59.10;;;;;;5080838;28;20192;-57
2022/08/22 10:09:52;;;;;;;2.27;2.00;;;20.60;59.70;;;;;;5097452;28;20225;-57
2022/08/22 10:12:32;;;;;;;3.00;1.80;;;20.80;59.10;;;;;;5085278;28;20271;-57
2022/08/22 10:15:19;;;;;;;6.47;2.07;;;20.80;57.00;;;;;;5097907;28;20181;-58
2022/08/22 10:18:05;;;;;;;3.83;2.10;;;20.90;58.20;;;;;;5080767;28;20217;-57
2022/08/22 10:20:46;;;;;;;1.93;1.73;;;21.00;56.20;;;;;;5079369;28;20181;-58
2022/08/22 10:23:28;;;;;;;1.97;1.77;;;21.10;56.40;;;;;;5088108;28;20222;-57
2022/08/22 10:26:19;;;;;;;3.30;2.00;;;21.10;57.20;;;;;;5073731;28;20232;-56
2022/08/22 10:29:20;;;;;;;4.20;2.30;;;21.10;57.30;;;;;;5073090;28;20201;-57
2022/08/22 10:31:56;;;;;;;11.40;5.33;;;21.20;56.70;;;;;;5054655;28;20222;-57
2022/08/22 10:34:27;;;;;;;3.53;2.27;;;21.20;56.40;;;;;;5091456;28;20176;-57
2022/08/22 10:37:14;;;;;;;4.43;2.60;;;21.20;56.80;;;;;;5093285;28;20184;-57
2022/08/22 10:39:52;;;;;;;4.07;2.00;;;21.20;54.00;;;;;;5071361;28;20185;-57
2022/08/22 10:42:32;;;;;;;2.10;1.90;;;21.30;54.90;;;;;;5074930;28;20188;-56
2022/08/22 10:45:19;;;;;;;2.70;2.03;;;21.30;55.60;;;;;;5092248;28;20269;-57
2022/08/22 10:47:57;;;;;;;3.87;2.70;;;21.30;56.10;;;;;;5074692;28;20192;-56
2022/08/22 10:50:43;;;;;;;2.10;2.00;;;21.30;55.80;;;;;;5067976;28;20293;-55
2022/08/22 10:53:34;;;;;;;4.17;2.27;;;21.30;55.20;;;;;;5084667;28;20184;-57
2022/08/22 10:56:08;;;;;;;3.50;1.90;;;21.30;55.00;;;;;;5067706;28;20196;-57
2022/08/22 10:58:45;;;;;;;2.43;1.50;;;21.30;55.40;;;;;;5074114;28;20169;-58
2022/08/22 11:01:15;;;;;;;3.73;1.90;;;21.30;55.10;;;;;;5079426;28;20177;-58
2022/08/22 11:04:04;;;;;;;5.07;2.17;;;21.30;54.60;;;;;;5083254;28;20212;-57
2022/08/22 11:06:41;;;;;;;1.70;1.57;;;21.30;56.80;;;;;;5064409;28;20185;-56
2022/08/22 11:09:38;;;;;;;1.83;1.73;;;21.30;55.00;;;;;;5101118;28;20185;-54
2022/08/22 11:12:22;;;;;;;2.33;1.40;;;21.30;56.30;;;;;;5070998;28;20192;-57
2022/08/22 11:15:08;;;;;;;2.10;1.90;;;21.30;55.90;;;;;;5076870;28;20181;-54
2022/08/22 11:17:49;;;;;;;1.87;1.60;;;21.30;55.50;;;;;;5067579;28;20215;-56
2022/08/22 11:20:41;;;;;;;1.70;1.50;;;21.30;56.90;;;;;;5088500;28;20199;-56
2022/08/22 11:23:09;;;;;;;1.63;1.43;;;21.40;56.60;;;;;;5059715;28;20193;-52
2022/08/22 11:25:53;;;;;;;1.60;1.50;;;21.30;55.10;;;;;;5073489;28;20233;-53
2022/08/22 11:28:22;;;;;;;1.47;1.37;;;21.30;55.10;;;;;;5077924;28;20215;-55
2022/08/22 11:31:02;;;;;;;1.30;1.20;;;21.30;55.80;;;;;;5090081;28;20224;-55
2022/08/22 11:33:49;;;;;;;1.97;1.40;;;21.40;56.60;;;;;;5077716;28;20190;-56
2022/08/22 11:36:33;;;;;;;1.80;1.40;;;21.40;57.10;;;;;;5089056;28;20192;-57
2022/08/22 11:39:07;;;;;;;4.00;1.50;;;21.30;56.70;;;;;;5092582;28;20173;-55
2022/08/22 11:41:43;;;;;;;2.17;1.23;;;21.40;57.40;;;;;;5072140;28;20185;-56
2022/08/22 11:44:18;;;;;;;2.10;1.30;;;21.30;56.90;;;;;;5081036;28;20212;-53
2022/08/22 11:46:47;;;;;;;1.10;1.07;;;21.40;55.80;;;;;;5087451;28;20191;-55
2022/08/22 11:49:31;;;;;;;1.73;1.40;;;21.40;56.20;;;;;;5090790;28;20279;-54
2022/08/22 11:52:29;;;;;;;1.40;1.30;;;21.40;57.10;;;;;;5070241;28;20205;-57
2022/08/22 11:55:04;;;;;;;2.53;1.27;;;21.40;56.80;;;;;;5073561;28;20185;-55
2022/08/22 11:57:38;;;;;;;1.40;1.30;;;21.40;55.90;;;;;;5075847;28;20203;-57
2022/08/22 12:00:17;;;;;;;1.83;1.20;;;21.40;54.90;;;;;;5072352;28;20185;-57
2022/08/22 12:03:17;;;;;;;1.47;0.97;;;21.40;56.10;;;;;;5088297;28;20173;-55
2022/08/22 12:05:56;;;;;;;1.50;1.40;;;21.40;56.30;;;;;;5086503;28;20226;-56
2022/08/22 12:08:39;;;;;;;1.37;1.23;;;21.50;56.40;;;;;;5068380;28;20185;-57
2022/08/22 12:11:26;;;;;;;1.30;1.20;;;21.50;57.80;;;;;;5071273;28;20174;-57
2022/08/22 12:14:03;;;;;;;1.07;1.07;;;21.50;57.60;;;;;;5095958;28;20269;-58
2022/08/22 12:16:47;;;;;;;1.93;1.30;;;21.50;58.50;;;;;;5083100;28;20185;-58
2022/08/22 12:19:39;;;;;;;1.37;1.27;;;21.40;54.90;;;;;;5081450;28;20189;-58
2022/08/22 12:22:05;;;;;;;1.30;1.20;;;21.40;55.30;;;;;;5066896;28;20231;-58
2022/08/22 12:24:58;;;;;;;1.13;1.00;;;21.40;54.80;;;;;;5094826;28;20257;-58
2022/08/22 12:27:53;;;;;;;1.30;1.20;;;21.50;56.40;;;;;;5081685;28;20196;-57
2022/08/22 12:30:41;;;;;;;1.20;1.07;;;21.50;57.40;;;;;;5080564;28;20184;-57
2022/08/22 12:33:33;;;;;;;1.30;1.00;;;21.50;56.40;;;;;;5076648;28;20199;-57
2022/08/22 12:36:11;;;;;;;2.20;1.20;;;21.50;55.50;;;;;;5073729;28;20207;-56
2022/08/22 12:38:59;;;;;;;1.30;1.10;;;21.50;56.00;;;;;;5093871;28;20189;-57
2022/08/22 12:42:19;;;;;;;1.00;0.70;;;21.40;55.20;;;;;;5088253;28;20268;-57
2022/08/22 12:45:06;;;;;;;1.30;1.20;;;21.40;55.40;;;;;;5011312;28;20330;-57
2022/08/22 12:48:09;;;;;;;1.30;1.20;;;21.40;54.90;;;;;;5079382;28;20190;-57
2022/08/22 12:50:43;;;;;;;1.20;1.10;;;21.40;54.40;;;;;;5089418;28;20185;-57
2022/08/22 12:53:31;;;;;;;1.20;1.10;;;21.30;55.10;;;;;;5079277;28;20192;-55
2022/08/22 12:56:24;;;;;;;1.13;1.00;;;21.40;55.30;;;;;;5076308;28;20184;-57
2022/08/22 12:59:25;;;;;;;0.90;0.90;;;21.40;54.60;;;;;;5093839;28;20240;-55
2022/08/22 13:01:55;;;;;;;1.60;1.30;;;21.40;54.50;;;;;;5075228;28;20189;-57
2022/08/22 13:04:24;;;;;;;1.23;0.90;;;21.50;55.80;;;;;;5082853;28;20220;-57
2022/08/22 13:06:50;;;;;;;1.10;0.90;;;21.50;56.20;;;;;;5078462;28;20185;-57
2022/08/22 13:09:47;;;;;;;1.00;0.93;;;21.50;55.00;;;;;;5073804;28;20188;-58
2022/08/22 13:12:13;;;;;;;0.90;0.90;;;21.50;56.10;;;;;;5055504;28;20194;-58
2022/08/22 13:14:42;;;;;;;1.57;1.30;;;21.50;56.80;;;;;;5078084;28;20257;-58
2022/08/22 13:17:16;;;;;;;1.30;1.20;;;21.50;55.20;;;;;;5061061;28;20221;-59
2022/08/22 13:20:00;;;;;;;1.30;1.03;;;21.50;54.40;;;;;;5072428;28;20260;-58
2022/08/22 13:22:30;;;;;;;1.00;1.00;;;21.50;53.50;;;;;;5090832;28;20281;-58
2022/08/22 13:25:25;;;;;;;1.77;1.00;;;21.40;54.10;;;;;;5095497;28;20261;-58
2022/08/22 13:27:57;;;;;;;0.83;0.83;;;21.40;54.10;;;;;;5075670;28;20173;-58
2022/08/22 13:30:36;;;;;;;0.73;0.70;;;21.40;54.60;;;;;;5077094;28;20181;-58
2022/08/22 13:33:10;;;;;;;0.80;0.80;;;21.30;54.50;;;;;;5077822;28;20191;-58
2022/08/22 13:35:47;;;;;;;0.77;0.77;;;21.30;55.10;;;;;;5085963;28;20295;-58
2022/08/22 13:38:38;;;;;;;0.90;0.90;;;21.30;56.00;;;;;;5079905;28;20223;-58
2022/08/22 13:41:04;;;;;;;1.10;0.80;;;21.30;58.50;;;;;;5083784;28;20216;-58
2022/08/22 13:43:36;;;;;;;1.33;1.00;;;21.30;58.90;;;;;;5051180;28;20192;-58
2022/08/22 13:46:07;;;;;;;1.30;0.80;;;21.20;59.60;;;;;;5089188;28;20181;-58
2022/08/22 13:48:48;;;;;;;2.97;0.90;;;21.00;57.90;;;;;;5071072;28;20182;-58
2022/08/22 13:51:22;;;;;;;0.77;0.77;;;20.90;59.90;;;;;;5070951;28;20217;-58
2022/08/22 13:53:55;;;;;;;0.93;0.90;;;20.90;61.20;;;;;;5074426;28;20200;-58
2022/08/22 13:56:26;;;;;;;1.83;1.10;;;20.90;61.60;;;;;;5071024;28;20185;-58
2022/08/22 13:58:57;;;;;;;0.97;0.80;;;20.90;62.80;;;;;;5079461;28;20287;-58
2022/08/22 14:01:58;;;;;;;0.80;0.73;;;20.90;61.60;;;;;;5078246;28;20188;-58
2022/08/22 14:04:29;;;;;;;1.10;1.00;;;20.90;60.90;;;;;;5068510;28;20216;-58
2022/08/22 14:07:03;;;;;;;0.77;0.77;;;20.90;61.60;;;;;;5073888;28;20191;-58
2022/08/22 14:09:52;;;;;;;0.80;0.80;;;20.90;60.70;;;;;;5070238;28;20220;-58